sensor_id;sensor_type;location;lat;lon;timestamp;P1;durP1;ratioP1;P2;durP2;ratioP2
12052;SDS011;6087;48.982;12.064;2023-04-25T00:01:21;2.10;;;1.87;;
12052;SDS011;6087;48.982;12.064;2023-04-25T00:03:48;2.30;;;2.10;;
12052;SDS011;6087;48.982;12.064;2023-04-25T00:06:15;3.03;;;2.37;;
12052;SDS011;6087;48.982;12.064;2023-04-25T00:08:42;2.60;;;2.30;;
12052;SDS011;6087;48.982;12.064;2023-04-25T00:11:09;2.30;;;2.10;;
12052;SDS011;6087;48.982;12.064;2023-04-25T00:13:36;3.20;;;2.13;;
12052;SDS011;6087;48.982;12.064;2023-04-25T00:16:07;2.67;;;2.47;;
12052;SDS011;6087;48.982;12.064;2023-04-25T00:18:35;2.10;;;1.90;;
12052;SDS011;6087;48.982;12.064;2023-04-25T00:21:02;2.50;;;2.23;;
12052;SDS011;6087;48.982;12.064;2023-04-25T00:23:34;3.13;;;2.37;;
12052;SDS011;6087;48.982;12.064;2023-04-25T00:26:02;2.90;;;2.70;;
12052;SDS011;6087;48.982;12.064;2023-04-25T00:28:29;2.50;;;2.30;;
12052;SDS011;6087;48.982;12.064;2023-04-25T00:31:05;2.77;;;2.40;;
12052;SDS011;6087;48.982;12.064;2023-04-25T00:33:32;3.03;;;2.50;;
12052;SDS011;6087;48.982;12.064;2023-04-25T00:35:59;4.80;;;2.50;;
12052;SDS011;6087;48.982;12.064;2023-04-25T00:38:25;2.90;;;2.60;;
12052;SDS011;6087;48.982;12.064;2023-04-25T00:40:52;2.40;;;2.20;;
12052;SDS011;6087;48.982;12.064;2023-04-25T00:43:20;3.00;;;2.80;;
12052;SDS011;6087;48.982;12.064;2023-04-25T00:45:47;3.23;;;2.50;;
12052;SDS011;6087;48.982;12.064;2023-04-25T00:48:17;2.93;;;2.63;;
12052;SDS011;6087;48.982;12.064;2023-04-25T00:50:44;5.17;;;3.10;;
12052;SDS011;6087;48.982;12.064;2023-04-25T00:53:18;3.47;;;2.37;;
12052;SDS011;6087;48.982;12.064;2023-04-25T00:55:47;3.20;;;2.90;;
12052;SDS011;6087;48.982;12.064;2023-04-25T00:58:17;2.87;;;2.57;;
12052;SDS011;6087;48.982;12.064;2023-04-25T01:00:46;3.83;;;2.20;;
12052;SDS011;6087;48.982;12.064;2023-04-25T01:03:13;3.67;;;2.87;;
12052;SDS011;6087;48.982;12.064;2023-04-25T01:05:43;2.90;;;2.67;;
12052;SDS011;6087;48.982;12.064;2023-04-25T01:08:10;3.03;;;2.73;;
12052;SDS011;6087;48.982;12.064;2023-04-25T01:10:37;2.63;;;2.43;;
12052;SDS011;6087;48.982;12.064;2023-04-25T01:13:04;2.87;;;2.67;;
12052;SDS011;6087;48.982;12.064;2023-04-25T01:15:31;2.47;;;2.23;;
12052;SDS011;6087;48.982;12.064;2023-04-25T01:20:45;3.20;;;2.87;;
12052;SDS011;6087;48.982;12.064;2023-04-25T01:23:14;3.43;;;2.53;;
12052;SDS011;6087;48.982;12.064;2023-04-25T01:25:41;3.60;;;2.73;;
12052;SDS011;6087;48.982;12.064;2023-04-25T01:28:08;3.50;;;2.90;;
12052;SDS011;6087;48.982;12.064;2023-04-25T01:30:35;4.17;;;2.53;;
12052;SDS011;6087;48.982;12.064;2023-04-25T01:33:03;3.07;;;2.77;;
12052;SDS011;6087;48.982;12.064;2023-04-25T01:35:30;2.33;;;2.13;;
12052;SDS011;6087;48.982;12.064;2023-04-25T01:37:57;3.27;;;2.50;;
12052;SDS011;6087;48.982;12.064;2023-04-25T01:40:26;2.73;;;2.53;;
12052;SDS011;6087;48.982;12.064;2023-04-25T01:42:54;3.00;;;2.70;;
12052;SDS011;6087;48.982;12.064;2023-04-25T01:45:21;2.93;;;2.70;;
12052;SDS011;6087;48.982;12.064;2023-04-25T01:47:48;4.27;;;2.60;;
12052;SDS011;6087;48.982;12.064;2023-04-25T01:50:15;2.53;;;2.33;;
12052;SDS011;6087;48.982;12.064;2023-04-25T01:52:43;3.17;;;2.57;;
12052;SDS011;6087;48.982;12.064;2023-04-25T01:55:10;5.03;;;2.47;;
12052;SDS011;6087;48.982;12.064;2023-04-25T01:57:38;2.57;;;2.37;;
12052;SDS011;6087;48.982;12.064;2023-04-25T02:00:06;4.00;;;2.97;;
12052;SDS011;6087;48.982;12.064;2023-04-25T02:02:39;2.87;;;2.57;;
12052;SDS011;6087;48.982;12.064;2023-04-25T02:05:06;3.77;;;2.90;;
12052;SDS011;6087;48.982;12.064;2023-04-25T02:07:33;3.17;;;2.40;;
12052;SDS011;6087;48.982;12.064;2023-04-25T02:10:00;2.87;;;2.60;;
12052;SDS011;6087;48.982;12.064;2023-04-25T02:12:27;3.67;;;2.80;;
12052;SDS011;6087;48.982;12.064;2023-04-25T02:14:57;5.20;;;2.90;;
12052;SDS011;6087;48.982;12.064;2023-04-25T02:17:24;2.77;;;2.57;;
12052;SDS011;6087;48.982;12.064;2023-04-25T02:19:51;3.00;;;2.60;;
12052;SDS011;6087;48.982;12.064;2023-04-25T02:22:18;2.70;;;2.47;;
12052;SDS011;6087;48.982;12.064;2023-04-25T02:24:45;2.90;;;2.60;;
12052;SDS011;6087;48.982;12.064;2023-04-25T02:27:12;2.80;;;2.60;;
12052;SDS011;6087;48.982;12.064;2023-04-25T02:29:39;4.17;;;3.40;;
12052;SDS011;6087;48.982;12.064;2023-04-25T02:32:07;3.03;;;2.73;;
12052;SDS011;6087;48.982;12.064;2023-04-25T02:34:34;2.90;;;2.70;;
12052;SDS011;6087;48.982;12.064;2023-04-25T02:37:01;2.87;;;2.67;;
12052;SDS011;6087;48.982;12.064;2023-04-25T02:39:28;3.20;;;2.90;;
12052;SDS011;6087;48.982;12.064;2023-04-25T02:41:55;3.40;;;3.03;;
12052;SDS011;6087;48.982;12.064;2023-04-25T02:44:29;4.13;;;2.87;;
12052;SDS011;6087;48.982;12.064;2023-04-25T02:46:55;2.70;;;2.50;;
12052;SDS011;6087;48.982;12.064;2023-04-25T02:49:24;2.90;;;2.50;;
12052;SDS011;6087;48.982;12.064;2023-04-25T02:51:53;5.67;;;2.93;;
12052;SDS011;6087;48.982;12.064;2023-04-25T02:54:20;3.43;;;2.93;;
12052;SDS011;6087;48.982;12.064;2023-04-25T02:56:47;3.63;;;2.60;;
12052;SDS011;6087;48.982;12.064;2023-04-25T02:59:18;3.00;;;2.73;;
12052;SDS011;6087;48.982;12.064;2023-04-25T03:01:44;2.90;;;2.60;;
12052;SDS011;6087;48.982;12.064;2023-04-25T03:04:14;3.00;;;2.77;;
12052;SDS011;6087;48.982;12.064;2023-04-25T03:06:42;4.90;;;2.87;;
12052;SDS011;6087;48.982;12.064;2023-04-25T03:09:10;4.63;;;3.57;;
12052;SDS011;6087;48.982;12.064;2023-04-25T03:11:36;3.37;;;3.07;;
12052;SDS011;6087;48.982;12.064;2023-04-25T03:14:04;3.87;;;3.20;;
12052;SDS011;6087;48.982;12.064;2023-04-25T03:16:40;3.67;;;2.70;;
12052;SDS011;6087;48.982;12.064;2023-04-25T03:19:10;3.47;;;2.27;;
12052;SDS011;6087;48.982;12.064;2023-04-25T03:21:39;3.30;;;2.70;;
12052;SDS011;6087;48.982;12.064;2023-04-25T03:24:08;3.23;;;2.33;;
12052;SDS011;6087;48.982;12.064;2023-04-25T03:26:50;3.53;;;2.50;;
12052;SDS011;6087;48.982;12.064;2023-04-25T03:29:30;3.33;;;2.60;;
12052;SDS011;6087;48.982;12.064;2023-04-25T03:31:57;5.53;;;2.90;;
12052;SDS011;6087;48.982;12.064;2023-04-25T03:34:24;3.80;;;2.50;;
12052;SDS011;6087;48.982;12.064;2023-04-25T03:36:51;3.23;;;2.93;;
12052;SDS011;6087;48.982;12.064;2023-04-25T03:39:19;2.60;;;2.40;;
12052;SDS011;6087;48.982;12.064;2023-04-25T03:41:46;3.90;;;2.17;;
12052;SDS011;6087;48.982;12.064;2023-04-25T03:44:13;2.90;;;2.70;;
12052;SDS011;6087;48.982;12.064;2023-04-25T03:46:40;2.43;;;2.23;;
12052;SDS011;6087;48.982;12.064;2023-04-25T03:49:07;2.67;;;2.23;;
12052;SDS011;6087;48.982;12.064;2023-04-25T03:51:34;3.40;;;2.77;;
12052;SDS011;6087;48.982;12.064;2023-04-25T03:54:04;3.87;;;2.87;;
12052;SDS011;6087;48.982;12.064;2023-04-25T03:56:32;3.13;;;2.83;;
12052;SDS011;6087;48.982;12.064;2023-04-25T03:58:59;3.10;;;2.57;;
12052;SDS011;6087;48.982;12.064;2023-04-25T04:01:26;3.60;;;2.80;;
12052;SDS011;6087;48.982;12.064;2023-04-25T04:03:53;3.00;;;2.53;;
12052;SDS011;6087;48.982;12.064;2023-04-25T04:06:20;3.53;;;2.73;;
12052;SDS011;6087;48.982;12.064;2023-04-25T04:08:47;3.33;;;2.53;;
12052;SDS011;6087;48.982;12.064;2023-04-25T04:11:14;5.63;;;3.47;;
12052;SDS011;6087;48.982;12.064;2023-04-25T04:13:42;3.43;;;2.90;;
12052;SDS011;6087;48.982;12.064;2023-04-25T04:16:09;4.30;;;3.03;;
12052;SDS011;6087;48.982;12.064;2023-04-25T04:18:36;3.63;;;2.67;;
12052;SDS011;6087;48.982;12.064;2023-04-25T04:21:03;2.90;;;2.60;;
12052;SDS011;6087;48.982;12.064;2023-04-25T04:23:30;4.83;;;3.90;;
12052;SDS011;6087;48.982;12.064;2023-04-25T04:25:57;3.03;;;2.77;;
12052;SDS011;6087;48.982;12.064;2023-04-25T04:28:23;5.10;;;2.57;;
12052;SDS011;6087;48.982;12.064;2023-04-25T04:30:53;3.00;;;2.70;;
12052;SDS011;6087;48.982;12.064;2023-04-25T04:33:20;4.47;;;2.50;;
12052;SDS011;6087;48.982;12.064;2023-04-25T04:35:48;2.73;;;2.50;;
12052;SDS011;6087;48.982;12.064;2023-04-25T04:38:17;3.10;;;2.43;;
12052;SDS011;6087;48.982;12.064;2023-04-25T04:40:44;4.50;;;3.17;;
12052;SDS011;6087;48.982;12.064;2023-04-25T04:43:12;5.17;;;3.07;;
12052;SDS011;6087;48.982;12.064;2023-04-25T04:45:42;3.53;;;3.10;;
12052;SDS011;6087;48.982;12.064;2023-04-25T04:48:10;3.50;;;3.20;;
12052;SDS011;6087;48.982;12.064;2023-04-25T04:50:39;3.80;;;3.50;;
12052;SDS011;6087;48.982;12.064;2023-04-25T04:53:06;6.93;;;3.87;;
12052;SDS011;6087;48.982;12.064;2023-04-25T04:55:33;3.70;;;3.37;;
12052;SDS011;6087;48.982;12.064;2023-04-25T04:58:00;4.00;;;3.70;;
12052;SDS011;6087;48.982;12.064;2023-04-25T05:00:27;4.27;;;3.40;;
12052;SDS011;6087;48.982;12.064;2023-04-25T05:02:54;6.20;;;3.67;;
12052;SDS011;6087;48.982;12.064;2023-04-25T05:05:22;5.07;;;3.57;;
12052;SDS011;6087;48.982;12.064;2023-04-25T05:07:49;5.33;;;3.87;;
12052;SDS011;6087;48.982;12.064;2023-04-25T05:10:16;4.97;;;3.90;;
12052;SDS011;6087;48.982;12.064;2023-04-25T05:12:43;5.83;;;3.70;;
12052;SDS011;6087;48.982;12.064;2023-04-25T05:15:11;4.20;;;3.33;;
12052;SDS011;6087;48.982;12.064;2023-04-25T05:17:38;8.07;;;4.47;;
12052;SDS011;6087;48.982;12.064;2023-04-25T05:20:05;6.27;;;3.90;;
12052;SDS011;6087;48.982;12.064;2023-04-25T05:22:35;5.43;;;3.50;;
12052;SDS011;6087;48.982;12.064;2023-04-25T05:25:02;4.47;;;3.40;;
12052;SDS011;6087;48.982;12.064;2023-04-25T05:27:38;4.47;;;3.10;;
12052;SDS011;6087;48.982;12.064;2023-04-25T05:30:05;4.00;;;3.10;;
12052;SDS011;6087;48.982;12.064;2023-04-25T05:32:33;3.17;;;2.87;;
12052;SDS011;6087;48.982;12.064;2023-04-25T05:35:00;3.83;;;3.37;;
12052;SDS011;6087;48.982;12.064;2023-04-25T05:37:27;2.90;;;2.70;;
12052;SDS011;6087;48.982;12.064;2023-04-25T05:39:56;4.37;;;3.23;;
12052;SDS011;6087;48.982;12.064;2023-04-25T05:42:23;4.43;;;3.13;;
12052;SDS011;6087;48.982;12.064;2023-04-25T05:44:50;5.13;;;3.47;;
12052;SDS011;6087;48.982;12.064;2023-04-25T05:47:17;4.40;;;3.03;;
12052;SDS011;6087;48.982;12.064;2023-04-25T05:49:50;4.77;;;2.70;;
12052;SDS011;6087;48.982;12.064;2023-04-25T05:52:17;3.03;;;2.80;;
12052;SDS011;6087;48.982;12.064;2023-04-25T05:54:44;3.80;;;2.90;;
12052;SDS011;6087;48.982;12.064;2023-04-25T05:57:20;4.73;;;3.27;;
12052;SDS011;6087;48.982;12.064;2023-04-25T05:59:48;3.27;;;2.87;;
12052;SDS011;6087;48.982;12.064;2023-04-25T06:02:15;5.40;;;3.50;;
12052;SDS011;6087;48.982;12.064;2023-04-25T06:04:49;4.53;;;3.37;;
12052;SDS011;6087;48.982;12.064;2023-04-25T06:07:16;3.77;;;3.43;;
12052;SDS011;6087;48.982;12.064;2023-04-25T06:09:43;3.80;;;3.40;;
12052;SDS011;6087;48.982;12.064;2023-04-25T06:12:10;2.80;;;2.60;;
12052;SDS011;6087;48.982;12.064;2023-04-25T06:14:40;5.33;;;2.60;;
12052;SDS011;6087;48.982;12.064;2023-04-25T06:17:07;4.40;;;2.87;;
12052;SDS011;6087;48.982;12.064;2023-04-25T06:19:37;4.23;;;2.53;;
12052;SDS011;6087;48.982;12.064;2023-04-25T06:22:07;3.43;;;2.90;;
12052;SDS011;6087;48.982;12.064;2023-04-25T06:24:34;2.50;;;2.30;;
12052;SDS011;6087;48.982;12.064;2023-04-25T06:27:01;4.67;;;2.63;;
12052;SDS011;6087;48.982;12.064;2023-04-25T06:29:34;2.97;;;2.67;;
12052;SDS011;6087;48.982;12.064;2023-04-25T06:32:02;4.10;;;2.80;;
12052;SDS011;6087;48.982;12.064;2023-04-25T06:34:30;3.80;;;2.50;;
12052;SDS011;6087;48.982;12.064;2023-04-25T06:36:57;4.00;;;2.90;;
12052;SDS011;6087;48.982;12.064;2023-04-25T06:39:23;2.93;;;2.40;;
12052;SDS011;6087;48.982;12.064;2023-04-25T06:41:50;3.23;;;2.37;;
12052;SDS011;6087;48.982;12.064;2023-04-25T06:44:18;2.77;;;2.37;;
12052;SDS011;6087;48.982;12.064;2023-04-25T06:46:46;3.47;;;2.60;;
12052;SDS011;6087;48.982;12.064;2023-04-25T06:49:14;4.93;;;2.60;;
12052;SDS011;6087;48.982;12.064;2023-04-25T06:51:42;2.57;;;2.37;;
12052;SDS011;6087;48.982;12.064;2023-04-25T06:54:16;3.87;;;2.33;;
12052;SDS011;6087;48.982;12.064;2023-04-25T06:56:43;3.60;;;2.43;;
12052;SDS011;6087;48.982;12.064;2023-04-25T06:59:12;5.23;;;2.37;;
12052;SDS011;6087;48.982;12.064;2023-04-25T07:01:39;2.90;;;2.60;;
12052;SDS011;6087;48.982;12.064;2023-04-25T07:04:06;2.27;;;2.00;;
12052;SDS011;6087;48.982;12.064;2023-04-25T07:06:37;2.70;;;2.40;;
12052;SDS011;6087;48.982;12.064;2023-04-25T07:09:07;2.20;;;2.00;;
12052;SDS011;6087;48.982;12.064;2023-04-25T07:11:34;3.83;;;2.13;;
12052;SDS011;6087;48.982;12.064;2023-04-25T07:14:04;3.50;;;2.10;;
12052;SDS011;6087;48.982;12.064;2023-04-25T07:16:31;3.37;;;2.27;;
12052;SDS011;6087;48.982;12.064;2023-04-25T07:19:00;2.10;;;1.90;;
12052;SDS011;6087;48.982;12.064;2023-04-25T07:21:38;2.90;;;2.03;;
12052;SDS011;6087;48.982;12.064;2023-04-25T07:24:05;2.23;;;2.10;;
12052;SDS011;6087;48.982;12.064;2023-04-25T07:26:32;2.90;;;1.97;;
12052;SDS011;6087;48.982;12.064;2023-04-25T07:28:59;2.10;;;2.00;;
12052;SDS011;6087;48.982;12.064;2023-04-25T07:31:26;3.50;;;2.23;;
12052;SDS011;6087;48.982;12.064;2023-04-25T07:33:53;2.17;;;2.07;;
12052;SDS011;6087;48.982;12.064;2023-04-25T07:36:23;3.00;;;2.10;;
12052;SDS011;6087;48.982;12.064;2023-04-25T07:38:52;2.30;;;2.10;;
12052;SDS011;6087;48.982;12.064;2023-04-25T07:41:31;2.87;;;2.27;;
12052;SDS011;6087;48.982;12.064;2023-04-25T07:43:58;2.60;;;1.97;;
12052;SDS011;6087;48.982;12.064;2023-04-25T07:46:25;2.37;;;2.17;;
12052;SDS011;6087;48.982;12.064;2023-04-25T07:48:52;3.10;;;2.20;;
12052;SDS011;6087;48.982;12.064;2023-04-25T07:51:19;4.87;;;2.40;;
12052;SDS011;6087;48.982;12.064;2023-04-25T07:53:50;2.50;;;1.83;;
12052;SDS011;6087;48.982;12.064;2023-04-25T07:56:18;2.30;;;2.10;;
12052;SDS011;6087;48.982;12.064;2023-04-25T07:58:45;2.63;;;2.00;;
12052;SDS011;6087;48.982;12.064;2023-04-25T08:01:26;2.73;;;2.03;;
12052;SDS011;6087;48.982;12.064;2023-04-25T08:03:53;3.00;;;2.30;;
12052;SDS011;6087;48.982;12.064;2023-04-25T08:06:23;2.33;;;2.13;;
12052;SDS011;6087;48.982;12.064;2023-04-25T08:08:53;2.33;;;2.13;;
12052;SDS011;6087;48.982;12.064;2023-04-25T08:11:21;2.37;;;2.17;;
12052;SDS011;6087;48.982;12.064;2023-04-25T08:13:48;3.10;;;2.50;;
12052;SDS011;6087;48.982;12.064;2023-04-25T08:16:15;3.07;;;2.23;;
12052;SDS011;6087;48.982;12.064;2023-04-25T08:18:47;2.33;;;2.13;;
12052;SDS011;6087;48.982;12.064;2023-04-25T08:21:14;3.03;;;2.33;;
12052;SDS011;6087;48.982;12.064;2023-04-25T08:23:41;2.50;;;2.30;;
12052;SDS011;6087;48.982;12.064;2023-04-25T08:26:08;2.57;;;2.37;;
12052;SDS011;6087;48.982;12.064;2023-04-25T08:28:36;2.50;;;2.30;;
12052;SDS011;6087;48.982;12.064;2023-04-25T08:31:03;3.20;;;2.53;;
12052;SDS011;6087;48.982;12.064;2023-04-25T08:33:30;3.17;;;2.57;;
12052;SDS011;6087;48.982;12.064;2023-04-25T08:35:57;5.07;;;2.43;;
12052;SDS011;6087;48.982;12.064;2023-04-25T08:38:24;2.87;;;2.67;;
12052;SDS011;6087;48.982;12.064;2023-04-25T08:40:51;2.83;;;2.63;;
12052;SDS011;6087;48.982;12.064;2023-04-25T08:43:20;5.10;;;2.10;;
12052;SDS011;6087;48.982;12.064;2023-04-25T08:45:48;2.30;;;2.10;;
12052;SDS011;6087;48.982;12.064;2023-04-25T08:48:16;3.60;;;2.40;;
12052;SDS011;6087;48.982;12.064;2023-04-25T08:50:44;3.08;;;2.78;;
12052;SDS011;6087;48.982;12.064;2023-04-25T08:53:14;2.38;;;1.75;;
12052;SDS011;6087;48.982;12.064;2023-04-25T08:55:44;2.65;;;2.35;;
12052;SDS011;6087;48.982;12.064;2023-04-25T08:58:18;2.28;;;2.08;;
12052;SDS011;6087;48.982;12.064;2023-04-25T09:00:45;2.78;;;2.10;;
12052;SDS011;6087;48.982;12.064;2023-04-25T09:03:14;3.00;;;2.00;;
12052;SDS011;6087;48.982;12.064;2023-04-25T09:05:41;2.55;;;2.20;;
12052;SDS011;6087;48.982;12.064;2023-04-25T09:08:08;2.30;;;2.10;;
12052;SDS011;6087;48.982;12.064;2023-04-25T09:10:35;1.98;;;1.80;;
12052;SDS011;6087;48.982;12.064;2023-04-25T09:13:04;2.22;;;2.00;;
12052;SDS011;6087;48.982;12.064;2023-04-25T09:15:32;2.35;;;2.15;;
12052;SDS011;6087;48.982;12.064;2023-04-25T09:17:59;2.70;;;2.50;;
12052;SDS011;6087;48.982;12.064;2023-04-25T09:20:27;2.60;;;2.40;;
12052;SDS011;6087;48.982;12.064;2023-04-25T09:23:01;2.88;;;2.50;;
12052;SDS011;6087;48.982;12.064;2023-04-25T09:25:31;3.22;;;2.05;;
12052;SDS011;6087;48.982;12.064;2023-04-25T09:28:03;2.88;;;2.65;;
12052;SDS011;6087;48.982;12.064;2023-04-25T09:30:31;3.50;;;3.20;;
12052;SDS011;6087;48.982;12.064;2023-04-25T09:33:03;5.55;;;2.75;;
12052;SDS011;6087;48.982;12.064;2023-04-25T09:35:37;2.67;;;2.30;;
12052;SDS011;6087;48.982;12.064;2023-04-25T09:38:12;3.40;;;2.58;;
12052;SDS011;6087;48.982;12.064;2023-04-25T09:40:40;2.50;;;2.30;;
12052;SDS011;6087;48.982;12.064;2023-04-25T09:43:10;2.05;;;1.70;;
12052;SDS011;6087;48.982;12.064;2023-04-25T09:45:45;1.80;;;1.70;;
12052;SDS011;6087;48.982;12.064;2023-04-25T09:48:15;2.28;;;1.50;;
12052;SDS011;6087;48.982;12.064;2023-04-25T09:50:45;1.83;;;1.70;;
12052;SDS011;6087;48.982;12.064;2023-04-25T09:53:12;2.97;;;2.78;;
12052;SDS011;6087;48.982;12.064;2023-04-25T09:55:40;3.60;;;2.27;;
12052;SDS011;6087;48.982;12.064;2023-04-25T09:58:09;3.73;;;2.90;;
12052;SDS011;6087;48.982;12.064;2023-04-25T10:00:37;3.15;;;2.85;;
12052;SDS011;6087;48.982;12.064;2023-04-25T10:03:08;3.00;;;2.67;;
12052;SDS011;6087;48.982;12.064;2023-04-25T10:05:37;3.63;;;2.60;;
12052;SDS011;6087;48.982;12.064;2023-04-25T10:08:05;2.42;;;2.30;;
12052;SDS011;6087;48.982;12.064;2023-04-25T10:10:33;2.88;;;2.58;;
12052;SDS011;6087;48.982;12.064;2023-04-25T10:13:03;4.13;;;2.38;;
12052;SDS011;6087;48.982;12.064;2023-04-25T10:15:32;2.60;;;2.40;;
12052;SDS011;6087;48.982;12.064;2023-04-25T10:18:01;3.00;;;2.75;;
12052;SDS011;6087;48.982;12.064;2023-04-25T10:20:29;2.35;;;2.10;;
12052;SDS011;6087;48.982;12.064;2023-04-25T10:23:03;2.30;;;2.10;;
12052;SDS011;6087;48.982;12.064;2023-04-25T10:25:38;3.38;;;2.42;;
12052;SDS011;6087;48.982;12.064;2023-04-25T10:28:06;2.47;;;2.05;;
12052;SDS011;6087;48.982;12.064;2023-04-25T10:30:36;2.67;;;2.28;;
12052;SDS011;6087;48.982;12.064;2023-04-25T10:33:03;2.75;;;2.55;;
12052;SDS011;6087;48.982;12.064;2023-04-25T10:35:43;2.25;;;2.10;;
12052;SDS011;6087;48.982;12.064;2023-04-25T10:38:19;3.65;;;2.85;;
12052;SDS011;6087;48.982;12.064;2023-04-25T10:40:58;5.03;;;3.28;;
12052;SDS011;6087;48.982;12.064;2023-04-25T10:43:33;3.53;;;3.00;;
12052;SDS011;6087;48.982;12.064;2023-04-25T10:46:01;4.00;;;3.17;;
12052;SDS011;6087;48.982;12.064;2023-04-25T10:48:30;3.63;;;3.10;;
12052;SDS011;6087;48.982;12.064;2023-04-25T10:51:07;3.50;;;3.20;;
12052;SDS011;6087;48.982;12.064;2023-04-25T10:53:38;4.93;;;3.38;;
12052;SDS011;6087;48.982;12.064;2023-04-25T10:56:09;5.38;;;3.53;;
12052;SDS011;6087;48.982;12.064;2023-04-25T10:58:41;4.75;;;3.20;;
12052;SDS011;6087;48.982;12.064;2023-04-25T11:01:08;3.45;;;3.15;;
12052;SDS011;6087;48.982;12.064;2023-04-25T11:03:42;4.22;;;3.25;;
12052;SDS011;6087;48.982;12.064;2023-04-25T11:06:12;3.30;;;2.72;;
12052;SDS011;6087;48.982;12.064;2023-04-25T11:08:50;2.67;;;2.25;;
12052;SDS011;6087;48.982;12.064;2023-04-25T11:11:17;1.88;;;1.75;;
12052;SDS011;6087;48.982;12.064;2023-04-25T11:13:47;2.38;;;2.17;;
12052;SDS011;6087;48.982;12.064;2023-04-25T11:16:15;2.88;;;2.25;;
12052;SDS011;6087;48.982;12.064;2023-04-25T11:18:42;4.00;;;1.45;;
12052;SDS011;6087;48.982;12.064;2023-04-25T11:21:10;2.88;;;1.60;;
12052;SDS011;6087;48.982;12.064;2023-04-25T11:23:37;1.15;;;1.10;;
12052;SDS011;6087;48.982;12.064;2023-04-25T11:26:06;1.35;;;1.10;;
12052;SDS011;6087;48.982;12.064;2023-04-25T11:28:33;1.20;;;0.93;;
12052;SDS011;6087;48.982;12.064;2023-04-25T11:31:00;2.42;;;1.02;;
12052;SDS011;6087;48.982;12.064;2023-04-25T11:33:28;1.60;;;1.50;;
12052;SDS011;6087;48.982;12.064;2023-04-25T11:35:55;1.50;;;1.40;;
12052;SDS011;6087;48.982;12.064;2023-04-25T11:38:23;1.58;;;1.48;;
12052;SDS011;6087;48.982;12.064;2023-04-25T11:40:52;1.38;;;1.23;;
12052;SDS011;6087;48.982;12.064;2023-04-25T11:43:21;1.70;;;1.60;;
12052;SDS011;6087;48.982;12.064;2023-04-25T11:45:49;3.17;;;1.92;;
12052;SDS011;6087;48.982;12.064;2023-04-25T11:48:17;1.73;;;1.63;;
12052;SDS011;6087;48.982;12.064;2023-04-25T11:50:45;1.80;;;1.70;;
12052;SDS011;6087;48.982;12.064;2023-04-25T11:53:12;2.53;;;1.50;;
12052;SDS011;6087;48.982;12.064;2023-04-25T11:55:39;1.77;;;1.67;;
12052;SDS011;6087;48.982;12.064;2023-04-25T11:58:06;1.90;;;1.80;;
12052;SDS011;6087;48.982;12.064;2023-04-25T12:00:35;1.52;;;1.42;;
12052;SDS011;6087;48.982;12.064;2023-04-25T12:03:02;2.00;;;1.70;;
12052;SDS011;6087;48.982;12.064;2023-04-25T12:05:30;1.58;;;1.48;;
12052;SDS011;6087;48.982;12.064;2023-04-25T12:07:58;1.90;;;1.80;;
12052;SDS011;6087;48.982;12.064;2023-04-25T12:10:36;1.85;;;1.63;;
12052;SDS011;6087;48.982;12.064;2023-04-25T12:13:17;2.60;;;1.80;;
12052;SDS011;6087;48.982;12.064;2023-04-25T12:15:46;2.08;;;1.85;;
12052;SDS011;6087;48.982;12.064;2023-04-25T12:18:14;1.98;;;1.85;;
12052;SDS011;6087;48.982;12.064;2023-04-25T12:20:41;1.80;;;1.70;;
12052;SDS011;6087;48.982;12.064;2023-04-25T12:23:08;2.85;;;1.95;;
12052;SDS011;6087;48.982;12.064;2023-04-25T12:25:37;5.88;;;2.03;;
12052;SDS011;6087;48.982;12.064;2023-04-25T12:28:11;1.60;;;1.50;;
12052;SDS011;6087;48.982;12.064;2023-04-25T12:30:53;2.00;;;1.80;;
12052;SDS011;6087;48.982;12.064;2023-04-25T12:33:21;1.88;;;1.60;;
12052;SDS011;6087;48.982;12.064;2023-04-25T12:35:48;2.20;;;2.00;;
12052;SDS011;6087;48.982;12.064;2023-04-25T12:38:26;1.60;;;1.50;;
12052;SDS011;6087;48.982;12.064;2023-04-25T12:40:54;1.70;;;1.60;;
12052;SDS011;6087;48.982;12.064;2023-04-25T12:43:21;2.42;;;1.85;;
12052;SDS011;6087;48.982;12.064;2023-04-25T12:45:51;2.00;;;1.88;;
12052;SDS011;6087;48.982;12.064;2023-04-25T12:48:29;2.05;;;1.80;;
12052;SDS011;6087;48.982;12.064;2023-04-25T12:50:59;1.67;;;1.42;;
12052;SDS011;6087;48.982;12.064;2023-04-25T12:53:26;1.73;;;1.63;;
12052;SDS011;6087;48.982;12.064;2023-04-25T12:55:59;1.77;;;1.42;;
12052;SDS011;6087;48.982;12.064;2023-04-25T12:58:28;3.33;;;1.75;;
12052;SDS011;6087;48.982;12.064;2023-04-25T13:00:55;1.90;;;1.48;;
12052;SDS011;6087;48.982;12.064;2023-04-25T13:03:23;2.90;;;1.00;;
12052;SDS011;6087;48.982;12.064;2023-04-25T13:05:51;3.90;;;1.60;;
12052;SDS011;6087;48.982;12.064;2023-04-25T13:08:18;2.92;;;1.73;;
12052;SDS011;6087;48.982;12.064;2023-04-25T13:10:45;1.65;;;1.55;;
12052;SDS011;6087;48.982;12.064;2023-04-25T13:13:21;1.67;;;1.50;;
12052;SDS011;6087;48.982;12.064;2023-04-25T13:15:47;3.08;;;1.83;;
12052;SDS011;6087;48.982;12.064;2023-04-25T13:18:14;1.70;;;1.60;;
12052;SDS011;6087;48.982;12.064;2023-04-25T13:20:43;2.85;;;2.13;;
12052;SDS011;6087;48.982;12.064;2023-04-25T13:23:11;5.75;;;2.15;;
12052;SDS011;6087;48.982;12.064;2023-04-25T13:25:38;2.25;;;1.60;;
12052;SDS011;6087;48.982;12.064;2023-04-25T13:28:05;1.98;;;1.75;;
12052;SDS011;6087;48.982;12.064;2023-04-25T13:30:31;2.63;;;2.10;;
12052;SDS011;6087;48.982;12.064;2023-04-25T13:32:59;3.25;;;2.13;;
12052;SDS011;6087;48.982;12.064;2023-04-25T13:35:28;5.18;;;2.38;;
12052;SDS011;6087;48.982;12.064;2023-04-25T13:37:57;2.58;;;1.98;;
12052;SDS011;6087;48.982;12.064;2023-04-25T13:40:27;3.72;;;2.13;;
12052;SDS011;6087;48.982;12.064;2023-04-25T13:42:59;2.72;;;2.53;;
12052;SDS011;6087;48.982;12.064;2023-04-25T13:45:27;2.50;;;2.30;;
12052;SDS011;6087;48.982;12.064;2023-04-25T13:47:54;2.83;;;2.08;;
12052;SDS011;6087;48.982;12.064;2023-04-25T13:50:21;2.58;;;2.38;;
12052;SDS011;6087;48.982;12.064;2023-04-25T13:52:48;3.05;;;2.53;;
12052;SDS011;6087;48.982;12.064;2023-04-25T13:55:18;3.35;;;2.35;;
12052;SDS011;6087;48.982;12.064;2023-04-25T13:57:49;2.35;;;2.13;;
12052;SDS011;6087;48.982;12.064;2023-04-25T14:00:16;2.67;;;2.47;;
12052;SDS011;6087;48.982;12.064;2023-04-25T14:02:46;2.03;;;1.92;;
12052;SDS011;6087;48.982;12.064;2023-04-25T14:05:23;2.65;;;2.40;;
12052;SDS011;6087;48.982;12.064;2023-04-25T14:07:52;3.25;;;2.20;;
12052;SDS011;6087;48.982;12.064;2023-04-25T14:10:20;3.30;;;1.90;;
12052;SDS011;6087;48.982;12.064;2023-04-25T14:12:47;2.90;;;1.75;;
12052;SDS011;6087;48.982;12.064;2023-04-25T14:15:14;2.13;;;1.58;;
12052;SDS011;6087;48.982;12.064;2023-04-25T14:17:41;3.17;;;1.55;;
12052;SDS011;6087;48.982;12.064;2023-04-25T14:20:10;1.63;;;1.10;;
12052;SDS011;6087;48.982;12.064;2023-04-25T14:22:40;1.45;;;1.33;;
12052;SDS011;6087;48.982;12.064;2023-04-25T14:25:08;1.50;;;1.40;;
12052;SDS011;6087;48.982;12.064;2023-04-25T14:27:37;1.40;;;1.30;;
12052;SDS011;6087;48.982;12.064;2023-04-25T14:30:04;2.90;;;1.33;;
12052;SDS011;6087;48.982;12.064;2023-04-25T14:32:34;1.83;;;1.45;;
12052;SDS011;6087;48.982;12.064;2023-04-25T14:35:01;1.70;;;1.30;;
12052;SDS011;6087;48.982;12.064;2023-04-25T14:37:28;2.50;;;1.50;;
12052;SDS011;6087;48.982;12.064;2023-04-25T14:39:55;2.30;;;1.45;;
12052;SDS011;6087;48.982;12.064;2023-04-25T14:42:22;1.52;;;1.17;;
12052;SDS011;6087;48.982;12.064;2023-04-25T14:44:50;2.20;;;1.50;;
12052;SDS011;6087;48.982;12.064;2023-04-25T14:47:17;1.45;;;1.35;;
12052;SDS011;6087;48.982;12.064;2023-04-25T14:49:44;1.52;;;1.20;;
12052;SDS011;6087;48.982;12.064;2023-04-25T14:52:21;0.63;;;0.63;;
12052;SDS011;6087;48.982;12.064;2023-04-25T14:54:54;1.13;;;0.95;;
12052;SDS011;6087;48.982;12.064;2023-04-25T14:57:21;1.20;;;1.05;;
12052;SDS011;6087;48.982;12.064;2023-04-25T14:59:48;2.88;;;1.13;;